createdAt,value
2018-10-09T00:00:24.384Z,78.04
2018-10-09T00:02:54.427Z,78.33
2018-10-09T00:05:24.403Z,78.58
2018-10-09T00:07:54.461Z,78.23
2018-10-09T00:10:24.413Z,78.30
2018-10-09T00:12:54.320Z,78.07
2018-10-09T00:15:24.123Z,78.20
2018-10-09T00:17:53.896Z,77.48
2018-10-09T00:20:25.596Z,77.76
2018-10-09T00:22:58.318Z,76.99
2018-10-09T00:25:28.465Z,77.63
2018-10-09T00:27:58.279Z,77.32
2018-10-09T00:30:28.291Z,77.20
2018-10-09T00:32:58.339Z,76.56
2018-10-09T00:35:28.192Z,76.87
2018-10-09T00:37:58.237Z,76.58
2018-10-09T00:40:28.424Z,76.79
2018-10-09T00:42:58.395Z,76.90
2018-10-09T00:45:28.340Z,77.04
2018-10-09T00:47:58.263Z,76.66
2018-10-09T00:50:28.378Z,77.19
2018-10-09T00:52:58.195Z,76.69
2018-10-09T00:55:28.202Z,76.96
2018-10-09T00:57:58.464Z,77.90
2018-10-09T01:00:28.296Z,78.01
2018-10-09T01:02:58.407Z,77.99
2018-10-09T01:05:28.241Z,77.21
2018-10-09T01:07:58.328Z,77.44
2018-10-09T01:10:28.209Z,76.68
2018-10-09T01:12:58.070Z,77.80
2018-10-09T01:15:28.100Z,77.02
2018-10-09T01:17:57.961Z,77.05
2018-10-09T01:20:28.144Z,77.00
2018-10-09T01:22:58.076Z,78.18
2018-10-09T01:25:27.904Z,78.31
2018-10-09T01:27:57.902Z,78.20
2018-10-09T01:30:27.753Z,78.71
2018-10-09T01:32:57.708Z,78.72
2018-10-09T01:35:27.632Z,79.13
2018-10-09T01:37:57.636Z,79.11
2018-10-09T01:40:27.568Z,78.82
2018-10-09T01:42:57.479Z,79.57
2018-10-09T01:45:27.456Z,79.53
2018-10-09T01:47:57.497Z,80.09
2018-10-09T01:50:27.264Z,79.20
2018-10-09T01:52:57.296Z,78.84
2018-10-09T01:55:27.168Z,79.22
2018-10-09T01:57:57.476Z,78.94
2018-10-09T02:00:27.496Z,79.45
2018-10-09T02:02:57.365Z,80.28
2018-10-09T02:05:27.236Z,79.58
2018-10-09T02:07:57.013Z,79.69
2018-10-09T02:10:27.042Z,79.42
2018-10-09T02:12:56.907Z,79.04
2018-10-09T02:15:26.812Z,78.87
2018-10-09T02:17:56.760Z,78.52
2018-10-09T02:20:26.584Z,78.95
2018-10-09T02:22:56.681Z,78.36
2018-10-09T02:25:26.565Z,79.11
2018-10-09T02:27:56.713Z,78.83
2018-10-09T02:30:26.784Z,79.07
2018-10-09T02:32:56.633Z,79.00
2018-10-09T02:35:26.636Z,79.08
2018-10-09T02:37:56.581Z,78.84
2018-10-09T02:40:26.499Z,79.31
2018-10-09T02:42:56.397Z,79.03
2018-10-09T02:45:26.524Z,79.54
2018-10-09T02:47:56.562Z,78.96
2018-10-09T02:50:26.557Z,79.72
2018-10-09T02:52:56.484Z,79.36
2018-10-09T02:55:26.347Z,79.61
2018-10-09T02:57:56.842Z,79.48
2018-10-09T03:00:26.715Z,79.61
2018-10-09T03:02:56.981Z,79.78
2018-10-09T03:05:26.925Z,79.94
2018-10-09T03:07:56.988Z,79.75
2018-10-09T03:10:27.115Z,79.76
2018-10-09T03:12:57.081Z,80.01
2018-10-09T03:15:27.004Z,79.84
2018-10-09T03:17:57.042Z,79.45
2018-10-09T03:20:26.928Z,79.06
2018-10-09T03:22:57.080Z,79.11
2018-10-09T03:25:27.130Z,79.92
2018-10-09T03:27:57.210Z,79.87
2018-10-09T03:30:27.116Z,79.69
2018-10-09T03:32:57.196Z,79.29
2018-10-09T03:35:27.302Z,79.88
2018-10-09T03:37:57.352Z,79.85
2018-10-09T03:40:27.243Z,79.74
2018-10-09T03:42:57.154Z,79.53
2018-10-09T03:45:26.936Z,80.98
2018-10-09T03:47:56.764Z,80.86
2018-10-09T03:50:26.607Z,80.49
2018-10-09T03:52:56.508Z,80.17
2018-10-09T03:55:26.476Z,80.63
2018-10-09T03:57:56.932Z,79.93
2018-10-09T04:00:26.968Z,80.90
2018-10-09T04:02:56.848Z,80.67
2018-10-09T04:05:27.032Z,80.43
2018-10-09T04:07:57.103Z,80.10
2018-10-09T04:10:26.880Z,79.87
2018-10-09T04:12:56.861Z,80.51
2018-10-09T04:15:26.749Z,80.24
2018-10-09T04:17:56.858Z,80.98
2018-10-09T04:20:26.816Z,80.48
2018-10-09T04:22:56.665Z,80.26
2018-10-09T04:25:26.748Z,81.02
2018-10-09T04:27:57.017Z,80.60
2018-10-09T04:30:26.964Z,79.89
2018-10-09T04:32:56.892Z,80.67
2018-10-09T04:35:26.879Z,80.84
2018-10-09T04:37:56.725Z,81.16
2018-10-09T04:40:26.719Z,81.47
2018-10-09T04:42:56.650Z,81.62
2018-10-09T04:45:29.137Z,81.20
2018-10-09T04:48:00.906Z,80.73
2018-10-09T04:50:31.295Z,81.36
2018-10-09T04:53:01.266Z,81.13
2018-10-09T04:55:31.173Z,80.77
2018-10-09T04:58:01.232Z,80.18
2018-10-09T05:00:31.232Z,81.39
2018-10-09T05:03:01.389Z,81.54
2018-10-09T05:05:31.326Z,82.18
2018-10-09T05:08:01.191Z,82.26
2018-10-09T05:10:31.293Z,82.21
2018-10-09T05:13:01.377Z,81.58
2018-10-09T05:15:31.600Z,81.30
2018-10-09T05:18:01.572Z,81.94
2018-10-09T05:20:31.631Z,82.35
2018-10-09T05:23:01.595Z,82.42
2018-10-09T05:25:31.606Z,83.23
2018-10-09T05:28:01.420Z,83.27
2018-10-09T05:30:31.336Z,82.63
2018-10-09T05:33:01.156Z,83.37
2018-10-09T05:35:31.068Z,83.78
2018-10-09T05:38:01.004Z,84.31
2018-10-09T05:40:31.004Z,85.15
2018-10-09T05:43:01.009Z,84.29
2018-10-09T05:45:30.872Z,83.72
2018-10-09T05:48:00.683Z,83.05
2018-10-09T05:50:30.607Z,83.23
2018-10-09T05:53:00.625Z,83.25
2018-10-09T05:55:30.695Z,82.82
2018-10-09T05:58:00.669Z,82.92
2018-10-09T06:00:32.385Z,82.63
2018-10-09T06:03:02.376Z,82.50
2018-10-09T06:05:32.374Z,82.26
2018-10-09T06:08:02.312Z,81.85
2018-10-09T06:10:32.179Z,82.00
2018-10-09T06:13:02.038Z,81.74
2018-10-09T06:15:32.080Z,81.67
2018-10-09T06:18:01.940Z,81.17
2018-10-09T06:20:32.092Z,81.65
2018-10-09T06:23:02.308Z,81.33
2018-10-09T06:25:32.333Z,81.26
2018-10-09T06:28:02.249Z,81.21
2018-10-09T06:30:32.118Z,80.49
2018-10-09T06:33:02.258Z,81.18
2018-10-09T06:35:32.062Z,80.98
2018-10-09T06:38:02.068Z,80.55
2018-10-09T06:40:32.252Z,81.02
2018-10-09T06:43:02.291Z,80.57
2018-10-09T06:45:32.356Z,80.46
2018-10-09T06:48:02.295Z,81.01
2018-10-09T06:50:32.157Z,80.69
2018-10-09T06:53:02.106Z,80.37
2018-10-09T06:55:31.934Z,81.37
2018-10-09T06:58:01.778Z,81.14
2018-10-09T07:00:31.898Z,81.24
2018-10-09T07:03:01.870Z,80.68
2018-10-09T07:05:31.765Z,80.21
2018-10-09T07:08:02.010Z,79.86
2018-10-09T07:10:32.268Z,80.16
2018-10-09T07:13:02.230Z,79.03
2018-10-09T07:15:32.078Z,78.31
2018-10-09T07:18:01.926Z,77.60
2018-10-09T07:20:31.710Z,78.32
2018-10-09T07:23:01.828Z,78.35
2018-10-09T07:25:32.190Z,78.08
2018-10-09T07:28:02.108Z,78.50
2018-10-09T07:30:32.127Z,78.65
2018-10-09T07:33:02.238Z,78.41
2018-10-09T07:35:32.349Z,79.21
2018-10-09T07:38:02.177Z,78.70
2018-10-09T07:40:32.129Z,78.66
2018-10-09T07:43:02.205Z,78.72
2018-10-09T07:45:32.120Z,78.28
2018-10-09T07:48:02.133Z,78.70
2018-10-09T07:50:31.958Z,77.67
2018-10-09T07:53:01.972Z,77.37
2018-10-09T07:55:31.781Z,76.39
2018-10-09T07:58:01.698Z,75.28
2018-10-09T08:00:31.910Z,74.93
2018-10-09T08:03:01.794Z,75.26
2018-10-09T08:05:31.692Z,74.68
2018-10-09T08:08:01.566Z,74.20
2018-10-09T08:10:31.584Z,74.19
2018-10-09T08:13:01.543Z,73.49
2018-10-09T08:15:31.470Z,73.61
2018-10-09T08:18:02.103Z,73.68
2018-10-09T08:20:32.150Z,73.61
2018-10-09T08:23:02.125Z,73.00
2018-10-09T08:25:32.185Z,73.02
2018-10-09T08:28:02.309Z,72.15
2018-10-09T08:30:32.308Z,72.08
2018-10-09T08:33:02.317Z,71.91
2018-10-09T08:35:32.242Z,71.01
2018-10-09T08:38:02.232Z,70.76
2018-10-09T08:40:32.425Z,70.57
2018-10-09T08:43:02.404Z,70.01
2018-10-09T08:45:32.549Z,69.71
2018-10-09T08:48:02.685Z,70.20
2018-10-09T08:50:32.622Z,69.69
2018-10-09T08:53:02.652Z,69.32
2018-10-09T08:55:32.534Z,69.20
2018-10-09T08:58:02.566Z,69.33
2018-10-09T09:00:32.586Z,69.67
2018-10-09T09:03:02.495Z,69.77
2018-10-09T09:05:32.696Z,69.13
2018-10-09T09:08:02.766Z,69.59
2018-10-09T09:10:32.717Z,69.25
2018-10-09T09:13:02.724Z,70.06
2018-10-09T09:15:32.719Z,69.67
2018-10-09T09:18:02.589Z,69.84
2018-10-09T09:20:32.565Z,70.63
2018-10-09T09:23:02.339Z,69.88
2018-10-09T09:25:32.353Z,69.83
2018-10-09T09:28:02.223Z,70.37
2018-10-09T09:30:32.212Z,69.46
2018-10-09T09:33:02.659Z,69.74
2018-10-09T09:35:32.808Z,70.30
2018-10-09T09:38:02.746Z,70.11
2018-10-09T09:40:33.155Z,70.37
2018-10-09T09:43:03.065Z,69.74
2018-10-09T09:45:33.194Z,69.61
2018-10-09T09:48:03.100Z,69.35
2018-10-09T09:50:33.290Z,69.36
2018-10-09T09:53:03.101Z,68.97
2018-10-09T09:55:33.412Z,68.85
2018-10-09T09:58:03.376Z,69.71
2018-10-09T10:00:38.274Z,69.68
2018-10-09T10:03:08.470Z,69.39
2018-10-09T10:05:38.393Z,70.00
2018-10-09T10:08:08.800Z,69.74
2018-10-09T10:10:38.708Z,70.23
2018-10-09T10:13:08.672Z,70.47
2018-10-09T10:15:38.678Z,71.55
2018-10-09T10:18:08.518Z,71.71
2018-10-09T10:20:38.552Z,71.12
2018-10-09T10:23:08.767Z,72.20
2018-10-09T10:25:39.193Z,71.37
2018-10-09T10:28:09.139Z,72.17
2018-10-09T10:30:39.379Z,71.71
2018-10-09T10:33:09.225Z,71.54
2018-10-09T10:35:39.401Z,71.12
2018-10-09T10:38:09.217Z,70.55
2018-10-09T10:40:39.136Z,69.94
2018-10-09T10:43:09.039Z,70.54
2018-10-09T10:45:39.026Z,70.23
2018-10-09T10:48:09.038Z,70.08
2018-10-09T10:50:39.037Z,69.64
2018-10-09T10:53:09.458Z,69.47
2018-10-09T10:55:39.399Z,69.24
2018-10-09T10:58:09.538Z,69.72
2018-10-09T11:00:39.714Z,69.69
2018-10-09T11:03:09.902Z,69.74
2018-10-09T11:05:40.011Z,69.04
2018-10-09T11:08:10.267Z,69.10
2018-10-09T11:10:40.250Z,68.52
2018-10-09T11:13:10.333Z,68.02
2018-10-09T11:15:40.548Z,68.30
2018-10-09T11:18:10.477Z,68.12
2018-10-09T11:20:40.341Z,67.20
2018-10-09T11:23:10.230Z,67.80
2018-10-09T11:25:40.164Z,67.34
2018-10-09T11:28:10.045Z,66.11
2018-10-09T11:30:40.068Z,66.22
2018-10-09T11:33:10.091Z,66.09
2018-10-09T11:35:40.001Z,65.61
2018-10-09T11:38:09.953Z,65.64
2018-10-09T11:40:40.302Z,64.90
2018-10-09T11:43:10.225Z,64.80
2018-10-09T11:45:40.616Z,63.68
2018-10-09T11:48:10.888Z,63.31
2018-10-09T11:50:40.943Z,62.85
2018-10-09T11:53:11.198Z,62.41
2018-10-09T11:55:41.094Z,61.84
2018-10-09T11:58:11.088Z,61.14
2018-10-09T12:00:42.190Z,61.52
2018-10-09T12:03:12.053Z,61.27
2018-10-09T12:05:42.079Z,60.78
2018-10-09T12:08:12.127Z,60.28
2018-10-09T12:10:42.046Z,60.20
2018-10-09T12:13:11.945Z,59.76
2018-10-09T12:15:41.895Z,60.52
2018-10-09T12:18:11.970Z,60.78
2018-10-09T12:20:41.834Z,60.50
2018-10-09T12:23:11.719Z,59.53
2018-10-09T12:25:42.017Z,59.13
2018-10-09T12:28:11.979Z,59.42
2018-10-09T12:30:42.217Z,59.31
2018-10-09T12:33:12.414Z,59.19
2018-10-09T12:35:42.467Z,58.50
2018-10-09T12:38:12.591Z,57.67
2018-10-09T12:40:42.547Z,58.41
2018-10-09T12:43:12.494Z,57.05
2018-10-09T12:45:42.765Z,57.30
2018-10-09T12:48:12.693Z,57.75
2018-10-09T12:50:42.597Z,57.40
2018-10-09T12:53:12.562Z,56.05
2018-10-09T12:55:42.898Z,55.39
2018-10-09T12:58:12.924Z,55.81
2018-10-09T13:00:43.024Z,54.77
2018-10-09T13:03:13.244Z,55.33
2018-10-09T13:05:43.137Z,54.28
2018-10-09T13:08:12.964Z,53.78
2018-10-09T13:10:42.992Z,53.42
2018-10-09T13:13:12.946Z,53.63
2018-10-09T13:15:42.895Z,52.15
2018-10-09T13:18:12.765Z,53.28
2018-10-09T13:20:42.593Z,52.73
2018-10-09T13:23:12.452Z,52.18
2018-10-09T13:25:42.226Z,52.70
2018-10-09T13:28:12.205Z,51.71
2018-10-09T13:30:42.049Z,51.37
2018-10-09T13:33:12.151Z,51.63
2018-10-09T13:35:41.980Z,52.26
2018-10-09T13:38:12.098Z,52.23
2018-10-09T13:40:41.934Z,51.11
2018-10-09T13:43:11.929Z,50.79
2018-10-09T13:45:41.837Z,51.48
2018-10-09T13:48:12.098Z,50.63
2018-10-09T13:50:42.237Z,51.64
2018-10-09T13:53:12.128Z,52.18
2018-10-09T13:55:42.119Z,52.36
2018-10-09T13:58:12.122Z,52.39
2018-10-09T14:00:42.294Z,52.82
2018-10-09T14:03:12.639Z,53.07
2018-10-09T14:05:42.875Z,54.56
2018-10-09T14:08:12.972Z,54.50
2018-10-09T14:10:43.267Z,53.92
2018-10-09T14:13:13.203Z,54.20
2018-10-09T14:15:43.283Z,55.24
2018-10-09T14:18:13.228Z,55.44
2018-10-09T14:20:43.097Z,55.92
2018-10-09T14:23:13.123Z,55.66
2018-10-09T14:25:42.920Z,56.34
2018-10-09T14:28:12.993Z,56.51
2018-10-09T14:30:42.906Z,56.07
2018-10-09T14:33:12.793Z,56.65
2018-10-09T14:35:42.706Z,57.17
2018-10-09T14:38:12.722Z,57.54
2018-10-09T14:40:42.712Z,57.44
2018-10-09T14:43:12.572Z,57.55
2018-10-09T14:45:42.374Z,57.33
2018-10-09T14:48:12.385Z,57.62
2018-10-09T14:50:42.282Z,58.59
2018-10-09T14:53:12.464Z,58.72
2018-10-09T14:55:42.343Z,58.20
2018-10-09T14:58:12.243Z,57.93
2018-10-09T15:00:42.134Z,58.62
2018-10-09T15:03:12.222Z,58.45
2018-10-09T15:05:42.164Z,58.93
2018-10-09T15:08:12.326Z,58.90
2018-10-09T15:10:42.387Z,58.77
2018-10-09T15:13:12.255Z,59.36
2018-10-09T15:15:42.216Z,59.58
2018-10-09T15:18:12.112Z,60.27
2018-10-09T15:20:42.165Z,60.32
2018-10-09T15:23:12.307Z,60.41
2018-10-09T15:25:42.671Z,60.16
2018-10-09T15:28:12.848Z,60.04
2018-10-09T15:30:42.761Z,60.63
2018-10-09T15:33:12.668Z,60.71
2018-10-09T15:35:42.673Z,60.41
2018-10-09T15:38:12.844Z,60.38
2018-10-09T15:40:43.067Z,61.25
2018-10-09T15:43:13.509Z,61.09
2018-10-09T15:45:43.561Z,60.73
2018-10-09T15:48:13.600Z,61.10
2018-10-09T15:50:44.148Z,61.70
2018-10-09T15:53:14.223Z,62.54
2018-10-09T15:55:44.353Z,62.80
2018-10-09T15:58:14.637Z,63.14
2018-10-09T16:00:45.099Z,63.24
2018-10-09T16:03:15.444Z,63.80
2018-10-09T16:05:45.460Z,63.63
2018-10-09T16:08:15.754Z,63.96
2018-10-09T16:10:45.840Z,63.33
2018-10-09T16:13:15.811Z,64.56
2018-10-09T16:15:45.787Z,64.76
2018-10-09T16:18:15.935Z,65.49
2018-10-09T16:23:14.942Z,66.76
2018-10-09T16:28:18.035Z,66.57
2018-10-09T16:30:47.913Z,67.57
2018-10-09T16:33:18.164Z,68.41
2018-10-09T16:35:48.496Z,68.23
2018-10-09T16:38:18.671Z,68.91
2018-10-09T16:40:48.728Z,68.56
2018-10-09T16:43:18.790Z,68.73
2018-10-09T16:45:48.841Z,69.33
2018-10-09T16:48:18.820Z,70.25
2018-10-09T16:50:48.730Z,69.87
2018-10-09T16:53:18.624Z,70.83
2018-10-09T16:55:48.870Z,71.21
2018-10-09T16:58:18.908Z,70.89
2018-10-09T17:00:48.857Z,71.75
2018-10-09T17:03:18.822Z,71.37
2018-10-09T17:05:48.830Z,72.25
2018-10-09T17:08:19.137Z,72.00
2018-10-09T17:10:49.463Z,72.69
2018-10-09T17:13:19.492Z,72.12
2018-10-09T17:15:49.546Z,72.22
2018-10-09T17:18:19.400Z,71.54
2018-10-09T17:20:49.665Z,72.32
2018-10-09T17:23:19.793Z,72.32
2018-10-09T17:25:49.943Z,72.72
2018-10-09T17:28:19.880Z,73.28
2018-10-09T17:30:49.744Z,73.80
2018-10-09T17:33:19.865Z,74.39
2018-10-09T17:35:49.701Z,73.78
2018-10-09T17:38:19.668Z,74.64
2018-10-09T17:40:49.548Z,75.18
2018-10-09T17:43:19.496Z,75.20
2018-10-09T17:45:49.426Z,75.41
2018-10-09T17:48:19.441Z,75.46
2018-10-09T17:50:49.438Z,75.21
2018-10-09T17:53:19.622Z,75.93
2018-10-09T17:55:49.751Z,75.96
2018-10-09T17:58:19.769Z,76.20
2018-10-09T18:00:49.913Z,76.05
2018-10-09T18:03:19.949Z,76.45
2018-10-09T18:05:49.963Z,76.79
2018-10-09T18:08:20.127Z,76.88
2018-10-09T18:10:50.517Z,77.22
2018-10-09T18:13:20.539Z,77.36
2018-10-09T18:15:51.009Z,76.95
2018-10-09T18:18:21.111Z,77.59
2018-10-09T18:20:51.257Z,76.89
2018-10-09T18:23:21.430Z,77.33
2018-10-09T18:25:51.432Z,77.09
2018-10-09T18:28:21.320Z,78.30
2018-10-09T18:30:51.277Z,78.84
2018-10-09T18:33:21.399Z,78.73
2018-10-09T18:35:51.294Z,78.76
2018-10-09T18:38:21.318Z,78.82
2018-10-09T18:40:51.450Z,79.10
2018-10-09T18:43:21.732Z,78.86
2018-10-09T18:45:51.764Z,78.92
2018-10-09T18:48:21.830Z,79.09
2018-10-09T18:50:51.883Z,79.41
2018-10-09T18:53:21.866Z,79.19
2018-10-09T18:55:52.681Z,80.14
2018-10-09T18:58:23.161Z,80.31
2018-10-09T19:00:53.385Z,79.69
2018-10-09T19:03:23.520Z,79.99
2018-10-09T19:05:53.573Z,79.55
2018-10-09T19:08:23.629Z,79.68
2018-10-09T19:10:53.698Z,80.52
2018-10-09T19:13:23.493Z,81.07
2018-10-09T19:15:53.382Z,80.99
2018-10-09T19:18:23.868Z,81.24
2018-10-09T19:20:53.780Z,81.02
2018-10-09T19:23:24.000Z,81.03
2018-10-09T19:25:54.250Z,80.80
2018-10-09T19:28:24.319Z,80.88
2018-10-09T19:30:54.745Z,80.95
2018-10-09T19:33:25.295Z,80.65
2018-10-09T19:35:55.315Z,81.03
2018-10-09T19:38:25.715Z,81.20
2018-10-09T19:40:57.027Z,81.29
2018-10-09T19:43:27.209Z,81.93
2018-10-09T19:45:57.296Z,81.53
2018-10-09T19:48:27.658Z,81.40
2018-10-09T19:50:57.882Z,81.44
2018-10-09T19:53:28.151Z,81.87
2018-10-09T19:55:58.150Z,81.23
2018-10-09T19:58:28.316Z,81.45
2018-10-09T20:00:58.539Z,81.81
2018-10-09T20:03:28.693Z,81.57
2018-10-09T20:05:58.651Z,81.36
2018-10-09T20:08:28.913Z,81.53
2018-10-09T20:10:58.919Z,82.54
2018-10-09T20:13:28.860Z,82.38
2018-10-09T20:15:58.990Z,82.51
2018-10-09T20:18:28.883Z,82.24
2018-10-09T20:20:58.867Z,82.90
2018-10-09T20:23:29.048Z,82.41
2018-10-09T20:25:59.142Z,82.12
2018-10-09T20:28:29.137Z,82.40
2018-10-09T20:30:59.754Z,82.56
2018-10-09T20:33:30.034Z,82.87
2018-10-09T20:36:00.292Z,82.88
2018-10-09T20:38:30.400Z,82.38
2018-10-09T20:41:00.530Z,82.84
2018-10-09T20:43:30.493Z,82.18
2018-10-09T20:46:00.454Z,82.74
2018-10-09T20:48:30.634Z,83.04
2018-10-09T20:51:00.590Z,82.18
2018-10-09T20:53:30.614Z,82.97
2018-10-09T20:56:00.588Z,82.39
2018-10-09T20:58:30.893Z,82.49
2018-10-09T21:01:00.932Z,82.68
2018-10-09T21:03:30.814Z,83.12
2018-10-09T21:06:01.025Z,82.71
2018-10-09T21:08:31.191Z,83.33
2018-10-09T21:11:01.492Z,83.17
2018-10-09T21:13:31.761Z,82.92
2018-10-09T21:16:02.201Z,83.06
2018-10-09T21:18:32.263Z,83.33
2018-10-09T21:21:02.276Z,83.42
2018-10-09T21:23:32.338Z,83.65
2018-10-09T21:26:02.370Z,84.24
2018-10-09T21:28:32.392Z,84.02
2018-10-09T21:31:02.246Z,83.70
2018-10-09T21:33:32.125Z,83.58
2018-10-09T21:36:02.058Z,83.79
2018-10-09T21:38:32.022Z,84.00
2018-10-09T21:41:01.924Z,83.91
2018-10-09T21:43:32.024Z,83.80
2018-10-09T21:46:02.259Z,83.33
2018-10-09T21:48:32.100Z,83.77
2018-10-09T21:51:02.052Z,83.66
2018-10-09T21:53:32.079Z,83.72
2018-10-09T21:56:02.058Z,84.14
2018-10-09T21:58:32.142Z,83.65
2018-10-09T22:01:12.041Z,83.39
2018-10-09T22:03:42.697Z,83.86
2018-10-09T22:06:12.812Z,83.13
2018-10-09T22:08:42.992Z,83.50
2018-10-09T22:11:12.997Z,83.63
2018-10-09T22:13:43.049Z,84.00
2018-10-09T22:16:13.237Z,84.29
2018-10-09T22:18:43.132Z,84.45
2018-10-09T22:21:12.953Z,83.65
2018-10-09T22:23:43.013Z,83.86
2018-10-09T22:26:12.985Z,84.08
2018-10-09T22:28:42.933Z,84.08
2018-10-09T22:31:12.999Z,83.82
2018-10-09T22:33:43.024Z,83.64
2018-10-09T22:36:13.049Z,84.29
2018-10-09T22:38:42.886Z,84.58
2018-10-09T22:41:12.991Z,84.26
2018-10-09T22:43:42.847Z,84.46
2018-10-09T22:46:12.896Z,84.35
2018-10-09T22:48:42.808Z,83.78
2018-10-09T22:51:12.603Z,83.99
2018-10-09T22:53:42.468Z,84.39
2018-10-09T22:56:12.577Z,84.68
2018-10-09T22:58:42.630Z,83.98
2018-10-09T23:01:12.442Z,84.73
2018-10-09T23:03:42.400Z,84.88
2018-10-09T23:06:12.488Z,84.89
2018-10-09T23:08:42.313Z,84.54
2018-10-09T23:11:12.353Z,84.81
2018-10-09T23:13:42.345Z,84.17
2018-10-09T23:16:12.161Z,84.70
2018-10-09T23:18:42.304Z,84.37
2018-10-09T23:21:12.185Z,84.62
2018-10-09T23:23:42.133Z,84.78
2018-10-09T23:26:12.244Z,84.65
2018-10-09T23:28:42.258Z,84.47
2018-10-09T23:31:12.056Z,84.84
2018-10-09T23:33:42.152Z,83.94
2018-10-09T23:36:12.082Z,85.01
2018-10-09T23:38:42.237Z,84.49
2018-10-09T23:41:12.036Z,85.61
2018-10-09T23:43:42.394Z,85.38
2018-10-09T23:46:12.364Z,85.17
2018-10-09T23:48:42.225Z,84.97
2018-10-09T23:51:12.197Z,86.03
2018-10-09T23:53:42.102Z,85.24
2018-10-09T23:56:12.022Z,85.56
2018-10-09T23:58:41.812Z,85.98
